sensor_id;sensor_type;location;lat;lon;timestamp;pressure;altitude;pressure_sealevel;temperature;humidity
56414;BME280;42318;48.452;19.526;2023-10-09T00:01:17;99232.69;;;20.30;57.65
56414;BME280;42318;48.452;19.526;2023-10-09T00:04:21;99232.69;;;20.30;57.54
56414;BME280;42318;48.452;19.526;2023-10-09T00:07:24;99230.19;;;20.28;57.84
56414;BME280;42318;48.452;19.526;2023-10-09T00:10:30;99227.47;;;20.28;57.58
56414;BME280;42318;48.452;19.526;2023-10-09T00:13:47;99221.44;;;20.26;57.89
56414;BME280;42318;48.452;19.526;2023-10-09T00:16:57;99225.25;;;20.25;57.79
56414;BME280;42318;48.452;19.526;2023-10-09T00:20:13;99225.47;;;20.24;57.91
56414;BME280;42318;48.452;19.526;2023-10-09T00:23:22;99219.22;;;20.23;57.71
56414;BME280;42318;48.452;19.526;2023-10-09T00:26:26;99226.78;;;20.21;57.70
56414;BME280;42318;48.452;19.526;2023-10-09T00:29:26;99225.97;;;20.21;57.55
56414;BME280;42318;48.452;19.526;2023-10-09T00:32:34;99219.69;;;20.20;57.61
56414;BME280;42318;48.452;19.526;2023-10-09T00:35:38;99222.41;;;20.20;57.80
56414;BME280;42318;48.452;19.526;2023-10-09T00:38:44;99213.91;;;20.17;57.53
56414;BME280;42318;48.452;19.526;2023-10-09T00:41:52;99228.31;;;20.17;57.61
56414;BME280;42318;48.452;19.526;2023-10-09T00:44:57;99225.03;;;20.15;57.57
56414;BME280;42318;48.452;19.526;2023-10-09T00:48:04;99222.31;;;20.15;57.43
56414;BME280;42318;48.452;19.526;2023-10-09T00:51:07;99212.47;;;20.14;57.58
56414;BME280;42318;48.452;19.526;2023-10-09T00:54:17;99199.84;;;20.08;57.40
56414;BME280;42318;48.452;19.526;2023-10-09T00:57:20;99206.69;;;20.11;57.54
56414;BME280;42318;48.452;19.526;2023-10-09T01:00:25;99228.47;;;20.11;57.51
56414;BME280;42318;48.452;19.526;2023-10-09T01:03:44;99229.28;;;20.11;57.54
56414;BME280;42318;48.452;19.526;2023-10-09T01:06:46;99223.25;;;20.09;57.55
56414;BME280;42318;48.452;19.526;2023-10-09T01:10:06;99223.25;;;20.09;57.58
56414;BME280;42318;48.452;19.526;2023-10-09T01:13:10;99218.06;;;20.07;57.26
56414;BME280;42318;48.452;19.526;2023-10-09T01:16:10;99222.66;;;20.07;57.48
56414;BME280;42318;48.452;19.526;2023-10-09T01:19:13;99230.00;;;20.06;57.67
56414;BME280;42318;48.452;19.526;2023-10-09T01:22:20;99222.09;;;20.05;57.29
56414;BME280;42318;48.452;19.526;2023-10-09T01:25:22;99223.16;;;20.04;57.42
56414;BME280;42318;48.452;19.526;2023-10-09T01:28:23;99219.50;;;19.98;57.70
56414;BME280;42318;48.452;19.526;2023-10-09T01:31:24;99229.06;;;20.01;57.54
56414;BME280;42318;48.452;19.526;2023-10-09T01:34:31;99220.66;;;20.02;57.60
56414;BME280;42318;48.452;19.526;2023-10-09T01:37:38;99219.84;;;20.02;57.29
56414;BME280;42318;48.452;19.526;2023-10-09T01:40:38;99219.25;;;20.00;57.55
56414;BME280;42318;48.452;19.526;2023-10-09T01:43:39;99204.59;;;20.01;57.57
56414;BME280;42318;48.452;19.526;2023-10-09T01:46:45;99198.56;;;19.99;57.46
56414;BME280;42318;48.452;19.526;2023-10-09T01:49:48;99199.63;;;19.98;57.33
56414;BME280;42318;48.452;19.526;2023-10-09T01:52:50;99199.47;;;19.93;57.51
56414;BME280;42318;48.452;19.526;2023-10-09T01:55:53;99196.06;;;19.97;57.39
56414;BME280;42318;48.452;19.526;2023-10-09T01:58:56;99169.94;;;19.96;57.40
56414;BME280;42318;48.452;19.526;2023-10-09T02:02:02;99180.81;;;19.96;57.27
56414;BME280;42318;48.452;19.526;2023-10-09T02:05:13;99184.59;;;19.95;57.27
56414;BME280;42318;48.452;19.526;2023-10-09T02:08:13;99189.22;;;19.95;57.57
56414;BME280;42318;48.452;19.526;2023-10-09T02:11:14;99188.38;;;19.94;57.72
56414;BME280;42318;48.452;19.526;2023-10-09T02:14:14;99192.78;;;19.95;57.61
56414;BME280;42318;48.452;19.526;2023-10-09T02:17:21;99201.13;;;19.94;57.56
56414;BME280;42318;48.452;19.526;2023-10-09T02:20:25;99208.72;;;19.92;57.52
56414;BME280;42318;48.452;19.526;2023-10-09T02:23:32;99205.75;;;19.93;57.27
56414;BME280;42318;48.452;19.526;2023-10-09T02:26:49;99190.72;;;19.91;57.25
56414;BME280;42318;48.452;19.526;2023-10-09T02:29:52;99172.75;;;19.90;57.18
56414;BME280;42318;48.452;19.526;2023-10-09T02:32:53;99159.16;;;19.90;57.25
56414;BME280;42318;48.452;19.526;2023-10-09T02:35:59;99167.31;;;19.90;57.33
56414;BME280;42318;48.452;19.526;2023-10-09T02:39:05;99186.34;;;19.90;57.38
56414;BME280;42318;48.452;19.526;2023-10-09T02:42:06;99199.38;;;19.88;57.68
56414;BME280;42318;48.452;19.526;2023-10-09T02:45:13;99199.97;;;19.90;57.33
56414;BME280;42318;48.452;19.526;2023-10-09T02:48:17;99194.75;;;19.88;57.27
56414;BME280;42318;48.452;19.526;2023-10-09T02:51:28;99182.22;;;19.87;57.61
56414;BME280;42318;48.452;19.526;2023-10-09T02:54:28;99164.50;;;19.85;57.44
56414;BME280;42318;48.452;19.526;2023-10-09T02:57:35;99181.06;;;19.83;57.18
56414;BME280;42318;48.452;19.526;2023-10-09T03:00:37;99178.91;;;19.85;57.43
56414;BME280;42318;48.452;19.526;2023-10-09T03:03:38;99175.13;;;19.86;57.35
56414;BME280;42318;48.452;19.526;2023-10-09T03:06:39;99177.50;;;19.83;57.43
56414;BME280;42318;48.452;19.526;2023-10-09T03:09:43;99183.53;;;19.85;57.77
56414;BME280;42318;48.452;19.526;2023-10-09T03:12:44;99196.53;;;19.83;57.19
56414;BME280;42318;48.452;19.526;2023-10-09T03:15:45;99203.88;;;19.82;57.56
56414;BME280;42318;48.452;19.526;2023-10-09T03:18:50;99192.16;;;19.82;57.32
56414;BME280;42318;48.452;19.526;2023-10-09T03:21:51;99194.88;;;19.82;57.21
56414;BME280;42318;48.452;19.526;2023-10-09T03:24:52;99197.00;;;19.80;57.23
56414;BME280;42318;48.452;19.526;2023-10-09T03:27:53;99198.09;;;19.79;57.00
56414;BME280;42318;48.452;19.526;2023-10-09T03:30:56;99190.75;;;19.79;57.07
56414;BME280;42318;48.452;19.526;2023-10-09T03:34:00;99197.25;;;19.78;57.21
56414;BME280;42318;48.452;19.526;2023-10-09T03:37:00;99186.84;;;19.75;57.14
56414;BME280;42318;48.452;19.526;2023-10-09T03:40:20;99187.09;;;19.73;57.09
56414;BME280;42318;48.452;19.526;2023-10-09T03:43:22;99198.56;;;19.75;57.27
56414;BME280;42318;48.452;19.526;2023-10-09T03:46:23;99196.66;;;19.76;57.39
56414;BME280;42318;48.452;19.526;2023-10-09T03:49:33;99189.56;;;19.75;57.30
56414;BME280;42318;48.452;19.526;2023-10-09T03:52:33;99182.47;;;19.74;56.95
56414;BME280;42318;48.452;19.526;2023-10-09T03:55:35;99182.25;;;19.75;57.21
56414;BME280;42318;48.452;19.526;2023-10-09T03:58:39;99156.81;;;19.70;57.21
56414;BME280;42318;48.452;19.526;2023-10-09T04:01:40;99172.66;;;19.73;57.46
56414;BME280;42318;48.452;19.526;2023-10-09T04:04:41;99132.00;;;19.66;57.42
56414;BME280;42318;48.452;19.526;2023-10-09T04:07:47;99123.72;;;19.73;57.45
56414;BME280;42318;48.452;19.526;2023-10-09T04:10:49;99114.41;;;19.69;57.38
56414;BME280;42318;48.452;19.526;2023-10-09T04:13:53;99120.66;;;19.69;57.72
56414;BME280;42318;48.452;19.526;2023-10-09T04:16:53;99140.28;;;19.71;57.38
56414;BME280;42318;48.452;19.526;2023-10-09T04:20:29;99131.28;;;19.71;57.76
56414;BME280;42318;48.452;19.526;2023-10-09T04:23:33;99138.63;;;19.70;57.97
56414;BME280;42318;48.452;19.526;2023-10-09T04:26:56;99146.91;;;19.64;57.95
56414;BME280;42318;48.452;19.526;2023-10-09T04:29:57;99148.31;;;19.66;57.96
56414;BME280;42318;48.452;19.526;2023-10-09T04:33:01;99170.31;;;19.65;58.02
56414;BME280;42318;48.452;19.526;2023-10-09T04:36:11;99178.69;;;19.63;57.98
56414;BME280;42318;48.452;19.526;2023-10-09T04:39:21;99182.97;;;19.59;58.17
56414;BME280;42318;48.452;19.526;2023-10-09T04:42:41;99184.84;;;19.59;58.16
56414;BME280;42318;48.452;19.526;2023-10-09T04:45:58;99185.56;;;19.54;57.93
56414;BME280;42318;48.452;19.526;2023-10-09T04:49:23;99150.00;;;19.56;58.05
56414;BME280;42318;48.452;19.526;2023-10-09T04:52:28;99137.69;;;19.53;57.77
56414;BME280;42318;48.452;19.526;2023-10-09T04:55:28;99146.25;;;19.50;58.06
56414;BME280;42318;48.452;19.526;2023-10-09T04:58:39;99145.22;;;19.51;57.91
56414;BME280;42318;48.452;19.526;2023-10-09T05:01:39;99153.38;;;19.51;57.84
56414;BME280;42318;48.452;19.526;2023-10-09T05:04:57;99156.09;;;19.51;58.07
56414;BME280;42318;48.452;19.526;2023-10-09T05:08:36;99157.13;;;19.50;57.70
56414;BME280;42318;48.452;19.526;2023-10-09T05:11:46;99127.66;;;19.54;57.74
56414;BME280;42318;48.452;19.526;2023-10-09T05:14:52;99116.38;;;19.50;57.95
56414;BME280;42318;48.452;19.526;2023-10-09T05:18:09;99122.88;;;19.49;57.94
56414;BME280;42318;48.452;19.526;2023-10-09T05:21:09;99122.28;;;19.47;57.79
56414;BME280;42318;48.452;19.526;2023-10-09T05:24:13;99129.84;;;19.45;57.88
56414;BME280;42318;48.452;19.526;2023-10-09T05:27:13;99122.75;;;19.44;57.89
56414;BME280;42318;48.452;19.526;2023-10-09T05:30:25;99118.97;;;19.45;57.78
56414;BME280;42318;48.452;19.526;2023-10-09T05:33:25;99086.59;;;19.43;57.87
56414;BME280;42318;48.452;19.526;2023-10-09T05:36:28;99077.63;;;19.43;57.76
56414;BME280;42318;48.452;19.526;2023-10-09T05:39:29;99052.94;;;19.33;57.93
56414;BME280;42318;48.452;19.526;2023-10-09T05:42:42;99080.00;;;19.39;58.00
56414;BME280;42318;48.452;19.526;2023-10-09T05:45:43;99085.06;;;19.36;57.92
56414;BME280;42318;48.452;19.526;2023-10-09T05:49:02;99071.25;;;19.37;57.95
56414;BME280;42318;48.452;19.526;2023-10-09T05:52:21;99064.50;;;19.40;57.79
56414;BME280;42318;48.452;19.526;2023-10-09T05:55:40;99080.00;;;19.39;57.89
56414;BME280;42318;48.452;19.526;2023-10-09T05:58:59;99097.84;;;19.35;57.96
56414;BME280;42318;48.452;19.526;2023-10-09T06:02:12;99095.94;;;19.36;57.98
56414;BME280;42318;48.452;19.526;2023-10-09T06:05:31;99100.91;;;19.39;58.19
56414;BME280;42318;48.452;19.526;2023-10-09T06:09:03;99070.06;;;19.33;58.01
56414;BME280;42318;48.452;19.526;2023-10-09T06:12:16;99076.78;;;19.42;57.91
56414;BME280;42318;48.452;19.526;2023-10-09T06:15:49;99083.53;;;19.40;57.68
56414;BME280;42318;48.452;19.526;2023-10-09T06:18:50;99099.84;;;19.40;57.39
56414;BME280;42318;48.452;19.526;2023-10-09T06:22:09;99105.03;;;19.41;57.81
56414;BME280;42318;48.452;19.526;2023-10-09T06:25:12;99102.31;;;19.41;57.58
56414;BME280;42318;48.452;19.526;2023-10-09T06:28:18;99086.25;;;19.40;57.78
56414;BME280;42318;48.452;19.526;2023-10-09T06:31:19;99082.47;;;19.41;57.69
56414;BME280;42318;48.452;19.526;2023-10-09T06:34:49;99083.53;;;19.40;57.59
56414;BME280;42318;48.452;19.526;2023-10-09T06:37:52;99069.94;;;19.40;57.74
56414;BME280;42318;48.452;19.526;2023-10-09T06:41:02;99079.16;;;19.39;57.90
56414;BME280;42318;48.452;19.526;2023-10-09T06:44:05;99069.13;;;19.39;58.10
56414;BME280;42318;48.452;19.526;2023-10-09T06:47:06;99047.03;;;19.36;57.57
56414;BME280;42318;48.452;19.526;2023-10-09T06:50:09;99042.31;;;19.31;58.03
56414;BME280;42318;48.452;19.526;2023-10-09T06:53:21;99034.84;;;19.38;57.94
56414;BME280;42318;48.452;19.526;2023-10-09T06:56:28;99036.97;;;19.36;57.67
56414;BME280;42318;48.452;19.526;2023-10-09T06:59:31;99033.19;;;19.37;57.81
56414;BME280;42318;48.452;19.526;2023-10-09T07:02:43;99034.28;;;19.36;58.05
56414;BME280;42318;48.452;19.526;2023-10-09T07:05:47;99020.69;;;19.36;57.97
56414;BME280;42318;48.452;19.526;2023-10-09T07:09:10;99020.34;;;19.33;57.84
56414;BME280;42318;48.452;19.526;2023-10-09T07:12:11;99047.03;;;19.36;57.72
56414;BME280;42318;48.452;19.526;2023-10-09T07:15:20;99039.94;;;19.35;57.98
56414;BME280;42318;48.452;19.526;2023-10-09T07:18:40;99035.56;;;19.34;58.00
56414;BME280;42318;48.452;19.526;2023-10-09T07:21:49;99042.06;;;19.33;57.95
56414;BME280;42318;48.452;19.526;2023-10-09T07:24:56;99027.41;;;19.34;57.95
56414;BME280;42318;48.452;19.526;2023-10-09T07:27:56;99027.66;;;19.32;58.01
56414;BME280;42318;48.452;19.526;2023-10-09T07:31:00;99012.41;;;19.31;58.14
56414;BME280;42318;48.452;19.526;2023-10-09T07:34:00;98994.22;;;19.32;58.11
56414;BME280;42318;48.452;19.526;2023-10-09T07:37:07;98998.59;;;19.33;58.06
56414;BME280;42318;48.452;19.526;2023-10-09T07:40:08;98999.06;;;19.30;58.09
56414;BME280;42318;48.452;19.526;2023-10-09T07:43:09;99034.97;;;19.32;57.79
56414;BME280;42318;48.452;19.526;2023-10-09T07:46:18;99037.94;;;19.30;57.82
56414;BME280;42318;48.452;19.526;2023-10-09T07:49:32;99047.97;;;19.30;58.01
56414;BME280;42318;48.452;19.526;2023-10-09T07:52:33;99029.69;;;19.25;58.34
56414;BME280;42318;48.452;19.526;2023-10-09T07:55:34;99035.47;;;19.29;57.82
56414;BME280;42318;48.452;19.526;2023-10-09T07:58:40;99054.47;;;19.29;57.80
56414;BME280;42318;48.452;19.526;2023-10-09T08:01:48;99036.53;;;19.28;58.04
56414;BME280;42318;48.452;19.526;2023-10-09T08:05:00;99034.63;;;19.28;58.05
56414;BME280;42318;48.452;19.526;2023-10-09T08:08:05;99036.53;;;19.28;58.00
56414;BME280;42318;48.452;19.526;2023-10-09T08:11:47;99027.44;;;19.22;58.29
56414;BME280;42318;48.452;19.526;2023-10-09T08:15:14;99020.47;;;19.26;58.06
56414;BME280;42318;48.452;19.526;2023-10-09T08:18:21;98989.28;;;19.17;57.90
56414;BME280;42318;48.452;19.526;2023-10-09T08:21:32;98977.13;;;19.20;58.29
56414;BME280;42318;48.452;19.526;2023-10-09T08:25:05;98980.19;;;19.23;58.14
56414;BME280;42318;48.452;19.526;2023-10-09T08:28:05;98987.28;;;19.24;58.43
56414;BME280;42318;48.452;19.526;2023-10-09T08:31:17;98991.66;;;19.25;58.35
56414;BME280;42318;48.452;19.526;2023-10-09T08:34:45;98997.31;;;19.24;58.16
56414;BME280;42318;48.452;19.526;2023-10-09T08:37:49;98986.94;;;19.21;58.09
56414;BME280;42318;48.452;19.526;2023-10-09T08:40:51;98997.56;;;19.22;58.48
56414;BME280;42318;48.452;19.526;2023-10-09T08:43:58;99004.63;;;19.23;58.13
56414;BME280;42318;48.452;19.526;2023-10-09T08:47:00;98988.56;;;19.22;58.24
56414;BME280;42318;48.452;19.526;2023-10-09T08:50:00;98986.69;;;19.22;58.23
56414;BME280;42318;48.452;19.526;2023-10-09T08:53:02;98989.41;;;19.22;58.60
56414;BME280;42318;48.452;19.526;2023-10-09T08:56:04;98971.22;;;19.23;58.52
56414;BME280;42318;48.452;19.526;2023-10-09T08:59:05;98965.78;;;19.23;58.60
56414;BME280;42318;48.452;19.526;2023-10-09T09:02:05;98973.00;;;19.17;58.49
56414;BME280;42318;48.452;19.526;2023-10-09T09:05:16;98988.56;;;19.22;58.69
56414;BME280;42318;48.452;19.526;2023-10-09T09:08:25;98985.03;;;19.21;58.40
56414;BME280;42318;48.452;19.526;2023-10-09T09:11:26;98989.66;;;19.21;58.56
56414;BME280;42318;48.452;19.526;2023-10-09T09:14:37;98979.84;;;19.20;58.62
56414;BME280;42318;48.452;19.526;2023-10-09T09:17:38;98978.78;;;19.21;58.46
56414;BME280;42318;48.452;19.526;2023-10-09T09:20:41;98976.31;;;19.19;58.86
56414;BME280;42318;48.452;19.526;2023-10-09T09:23:55;98968.16;;;19.19;58.71
56414;BME280;42318;48.452;19.526;2023-10-09T09:27:02;98940.63;;;19.16;58.73
56414;BME280;42318;48.452;19.526;2023-10-09T09:30:28;98949.97;;;19.20;58.75
56414;BME280;42318;48.452;19.526;2023-10-09T09:33:35;98938.50;;;19.18;58.67
56414;BME280;42318;48.452;19.526;2023-10-09T09:36:56;98945.59;;;19.19;58.74
56414;BME280;42318;48.452;19.526;2023-10-09T09:39:58;98944.78;;;19.18;58.84
56414;BME280;42318;48.452;19.526;2023-10-09T09:43:02;98940.16;;;19.19;58.66
56414;BME280;42318;48.452;19.526;2023-10-09T09:46:07;98930.13;;;19.19;58.90
56414;BME280;42318;48.452;19.526;2023-10-09T09:49:08;98930.34;;;19.18;58.72
56414;BME280;42318;48.452;19.526;2023-10-09T09:52:17;98912.41;;;19.17;58.67
56414;BME280;42318;48.452;19.526;2023-10-09T09:55:19;98897.66;;;19.12;58.91
56414;BME280;42318;48.452;19.526;2023-10-09T09:58:24;98898.81;;;19.17;58.95
56414;BME280;42318;48.452;19.526;2023-10-09T10:01:29;98890.09;;;19.14;59.03
56414;BME280;42318;48.452;19.526;2023-10-09T10:04:32;98882.28;;;19.18;59.03
56414;BME280;42318;48.452;19.526;2023-10-09T10:07:36;98877.69;;;19.19;59.02
56414;BME280;42318;48.452;19.526;2023-10-09T10:10:43;98853.22;;;19.19;59.13
56414;BME280;42318;48.452;19.526;2023-10-09T10:13:55;98835.28;;;19.18;59.28
56414;BME280;42318;48.452;19.526;2023-10-09T10:20:06;98821.38;;;19.14;59.25
56414;BME280;42318;48.452;19.526;2023-10-09T10:23:19;98823.84;;;19.16;59.71
56414;BME280;42318;48.452;19.526;2023-10-09T10:26:22;98849.22;;;19.21;59.43
56414;BME280;42318;48.452;19.526;2023-10-09T10:29:30;98864.91;;;19.19;59.74
56414;BME280;42318;48.452;19.526;2023-10-09T10:32:53;98874.97;;;19.19;59.65
56414;BME280;42318;48.452;19.526;2023-10-09T10:35:54;98867.06;;;19.17;59.41
56414;BME280;42318;48.452;19.526;2023-10-09T10:39:04;98866.81;;;19.19;59.68
56414;BME280;42318;48.452;19.526;2023-10-09T10:42:05;98855.84;;;19.13;59.64
56414;BME280;42318;48.452;19.526;2023-10-09T10:45:06;98850.19;;;19.15;59.34
56414;BME280;42318;48.452;19.526;2023-10-09T10:48:27;98850.41;;;19.13;59.26
56414;BME280;42318;48.452;19.526;2023-10-09T10:51:38;98833.06;;;19.14;59.30
56414;BME280;42318;48.452;19.526;2023-10-09T10:54:38;98823.25;;;19.13;59.25
56414;BME280;42318;48.452;19.526;2023-10-09T10:57:39;98811.56;;;19.13;59.30
56414;BME280;42318;48.452;19.526;2023-10-09T11:00:58;98813.13;;;19.09;59.41
56414;BME280;42318;48.452;19.526;2023-10-09T11:03:59;98788.31;;;19.05;59.22
56414;BME280;42318;48.452;19.526;2023-10-09T11:07:01;98784.88;;;19.10;59.57
56414;BME280;42318;48.452;19.526;2023-10-09T11:10:10;98805.88;;;19.14;59.71
56414;BME280;42318;48.452;19.526;2023-10-09T11:13:21;98793.97;;;19.16;59.65
56414;BME280;42318;48.452;19.526;2023-10-09T11:16:36;98803.41;;;19.13;59.64
56414;BME280;42318;48.452;19.526;2023-10-09T11:19:42;98807.78;;;19.14;59.83
56414;BME280;42318;48.452;19.526;2023-10-09T11:22:44;98811.31;;;19.14;59.71
56414;BME280;42318;48.452;19.526;2023-10-09T11:26:05;98792.22;;;19.09;59.85
56414;BME280;42318;48.452;19.526;2023-10-09T11:29:26;98782.50;;;19.13;59.81
56414;BME280;42318;48.452;19.526;2023-10-09T11:32:26;98790.41;;;19.15;60.22
56414;BME280;42318;48.452;19.526;2023-10-09T11:35:33;98782.50;;;19.13;59.79
56414;BME280;42318;48.452;19.526;2023-10-09T11:38:36;98777.91;;;19.14;59.94
56414;BME280;42318;48.452;19.526;2023-10-09T11:41:40;98761.59;;;19.14;60.33
56414;BME280;42318;48.452;19.526;2023-10-09T11:44:44;98744.41;;;19.08;59.81
56414;BME280;42318;48.452;19.526;2023-10-09T11:47:49;98753.38;;;19.09;59.93
56414;BME280;42318;48.452;19.526;2023-10-09T11:50:59;98744.50;;;19.13;59.89
56414;BME280;42318;48.452;19.526;2023-10-09T11:54:03;98766.47;;;19.12;60.21
56414;BME280;42318;48.452;19.526;2023-10-09T11:57:04;98769.19;;;19.12;59.95
56414;BME280;42318;48.452;19.526;2023-10-09T12:00:05;98773.78;;;19.11;59.91
56414;BME280;42318;48.452;19.526;2023-10-09T12:03:28;98748.75;;;19.09;59.87
56414;BME280;42318;48.452;19.526;2023-10-09T12:06:30;98740.84;;;19.08;60.20
56414;BME280;42318;48.452;19.526;2023-10-09T12:09:33;98739.41;;;19.05;60.01
56414;BME280;42318;48.452;19.526;2023-10-09T12:12:35;98736.00;;;19.10;59.73
56414;BME280;42318;48.452;19.526;2023-10-09T12:15:35;98742.50;;;19.09;60.10
56414;BME280;42318;48.452;19.526;2023-10-09T12:18:39;98757.97;;;19.08;60.07
56414;BME280;42318;48.452;19.526;2023-10-09T12:21:39;98744.97;;;19.10;59.52
56414;BME280;42318;48.452;19.526;2023-10-09T12:24:43;98727.84;;;19.10;59.73
56414;BME280;42318;48.452;19.526;2023-10-09T12:27:43;98733.28;;;19.10;59.96
56414;BME280;42318;48.452;19.526;2023-10-09T12:30:44;98717.81;;;19.10;59.62
56414;BME280;42318;48.452;19.526;2023-10-09T12:33:50;98727.59;;;19.11;59.66
56414;BME280;42318;48.452;19.526;2023-10-09T12:36:55;98739.28;;;19.12;59.69
56414;BME280;42318;48.452;19.526;2023-10-09T12:39:55;98732.81;;;19.13;60.06
56414;BME280;42318;48.452;19.526;2023-10-09T12:42:57;98711.56;;;19.10;59.84
56414;BME280;42318;48.452;19.526;2023-10-09T12:46:04;98715.09;;;19.10;59.96
56414;BME280;42318;48.452;19.526;2023-10-09T12:49:07;98713.78;;;19.13;59.82
56414;BME280;42318;48.452;19.526;2023-10-09T12:52:07;98719.22;;;19.13;60.06
56414;BME280;42318;48.452;19.526;2023-10-09T12:55:15;98709.09;;;19.08;59.88
56414;BME280;42318;48.452;19.526;2023-10-09T12:58:19;98731.97;;;19.12;59.78
56414;BME280;42318;48.452;19.526;2023-10-09T13:01:21;98726.53;;;19.12;59.88
56414;BME280;42318;48.452;19.526;2023-10-09T13:04:22;98715.91;;;19.11;59.61
56414;BME280;42318;48.452;19.526;2023-10-09T13:07:23;98700.44;;;19.11;59.59
56414;BME280;42318;48.452;19.526;2023-10-09T13:10:24;98675.44;;;19.09;59.57
56414;BME280;42318;48.452;19.526;2023-10-09T13:13:28;98693.63;;;19.09;59.88
56414;BME280;42318;48.452;19.526;2023-10-09T13:16:41;98686.19;;;19.04;59.67
56414;BME280;42318;48.452;19.526;2023-10-09T13:19:42;98690.53;;;19.05;59.59
56414;BME280;42318;48.452;19.526;2023-10-09T13:22:44;98681.56;;;19.05;59.98
56414;BME280;42318;48.452;19.526;2023-10-09T13:25:49;98681.81;;;19.03;59.65
56414;BME280;42318;48.452;19.526;2023-10-09T13:28:54;98663.28;;;19.00;59.61
56414;BME280;42318;48.452;19.526;2023-10-09T13:31:55;98651.13;;;19.03;59.78
56414;BME280;42318;48.452;19.526;2023-10-09T13:35:03;98661.16;;;19.02;59.88
56414;BME280;42318;48.452;19.526;2023-10-09T13:38:04;98652.19;;;19.02;59.77
56414;BME280;42318;48.452;19.526;2023-10-09T13:41:10;98661.66;;;18.99;59.62
56414;BME280;42318;48.452;19.526;2023-10-09T13:44:18;98672.03;;;19.02;59.52
56414;BME280;42318;48.452;19.526;2023-10-09T13:47:19;98673.91;;;19.02;59.61
56414;BME280;42318;48.452;19.526;2023-10-09T13:50:20;98668.72;;;19.00;59.76
56414;BME280;42318;48.452;19.526;2023-10-09T13:53:22;98639.91;;;18.99;59.80
56414;BME280;42318;48.452;19.526;2023-10-09T13:56:24;98628.16;;;18.94;59.57
56414;BME280;42318;48.452;19.526;2023-10-09T13:59:27;98642.41;;;19.01;59.73
56414;BME280;42318;48.452;19.526;2023-10-09T14:02:28;98651.59;;;19.00;59.53
56414;BME280;42318;48.452;19.526;2023-10-09T14:05:28;98647.56;;;19.02;59.53
56414;BME280;42318;48.452;19.526;2023-10-09T14:08:29;98644.28;;;19.00;59.80
56414;BME280;42318;48.452;19.526;2023-10-09T14:11:31;98633.44;;;19.00;59.83
56414;BME280;42318;48.452;19.526;2023-10-09T14:14:39;98617.63;;;18.97;59.64
56414;BME280;42318;48.452;19.526;2023-10-09T14:17:49;98626.34;;;18.99;59.57
56414;BME280;42318;48.452;19.526;2023-10-09T14:20:56;98622.81;;;18.99;59.48
56414;BME280;42318;48.452;19.526;2023-10-09T14:23:57;98614.66;;;18.99;59.58
56414;BME280;42318;48.452;19.526;2023-10-09T14:26:59;98615.72;;;18.98;59.73
56414;BME280;42318;48.452;19.526;2023-10-09T14:29:59;98609.47;;;18.97;59.51
56414;BME280;42318;48.452;19.526;2023-10-09T14:33:01;98605.59;;;18.93;59.51
56414;BME280;42318;48.452;19.526;2023-10-09T14:36:04;98614.09;;;18.97;59.55
56414;BME280;42318;48.452;19.526;2023-10-09T14:39:06;98603.72;;;18.94;59.33
56414;BME280;42318;48.452;19.526;2023-10-09T14:42:07;98617.03;;;18.95;59.46
56414;BME280;42318;48.452;19.526;2023-10-09T14:45:12;98606.44;;;18.94;59.77
56414;BME280;42318;48.452;19.526;2023-10-09T14:48:16;98594.41;;;18.90;59.56
56414;BME280;42318;48.452;19.526;2023-10-09T14:51:27;98595.81;;;18.92;59.44
56414;BME280;42318;48.452;19.526;2023-10-09T14:54:28;98584.63;;;18.89;59.47
56414;BME280;42318;48.452;19.526;2023-10-09T14:57:29;98601.25;;;18.92;59.43
56414;BME280;42318;48.452;19.526;2023-10-09T15:00:33;98594.75;;;18.93;59.76
56414;BME280;42318;48.452;19.526;2023-10-09T15:03:34;98593.09;;;18.92;59.83
56414;BME280;42318;48.452;19.526;2023-10-09T15:06:37;98587.91;;;18.91;59.64
56414;BME280;42318;48.452;19.526;2023-10-09T15:09:38;98578.88;;;18.85;59.51
56414;BME280;42318;48.452;19.526;2023-10-09T15:12:42;98579.19;;;18.89;59.62
56414;BME280;42318;48.452;19.526;2023-10-09T15:15:49;98586.28;;;18.90;59.45
56414;BME280;42318;48.452;19.526;2023-10-09T15:18:51;98581.09;;;18.88;59.39
56414;BME280;42318;48.452;19.526;2023-10-09T15:21:53;98584.88;;;18.87;59.56
56414;BME280;42318;48.452;19.526;2023-10-09T15:24:54;98576.97;;;18.86;59.83
56414;BME280;42318;48.452;19.526;2023-10-09T15:27:54;98577.22;;;18.84;59.62
56414;BME280;42318;48.452;19.526;2023-10-09T15:30:56;98582.16;;;18.87;59.36
56414;BME280;42318;48.452;19.526;2023-10-09T15:33:57;98581.34;;;18.87;59.36
56414;BME280;42318;48.452;19.526;2023-10-09T15:36:57;98582.41;;;18.86;59.54
56414;BME280;42318;48.452;19.526;2023-10-09T15:39:58;98587.00;;;18.85;59.31
56414;BME280;42318;48.452;19.526;2023-10-09T15:43:05;98592.44;;;18.85;59.39
56414;BME280;42318;48.452;19.526;2023-10-09T15:46:11;98587.84;;;18.86;59.61
56414;BME280;42318;48.452;19.526;2023-10-09T15:49:14;98596.22;;;18.84;59.58
56414;BME280;42318;48.452;19.526;2023-10-09T15:52:15;98591.88;;;18.83;59.42
56414;BME280;42318;48.452;19.526;2023-10-09T15:55:16;98587.75;;;18.80;59.53
56414;BME280;42318;48.452;19.526;2023-10-09T15:58:21;98594.59;;;18.83;59.73
56414;BME280;42318;48.452;19.526;2023-10-09T16:01:21;98595.41;;;18.83;59.55
56414;BME280;42318;48.452;19.526;2023-10-09T16:04:23;98594.59;;;18.83;59.69
56414;BME280;42318;48.452;19.526;2023-10-09T16:07:24;98587.75;;;18.80;59.77
56414;BME280;42318;48.452;19.526;2023-10-09T16:10:27;98587.75;;;18.80;59.51
56414;BME280;42318;48.452;19.526;2023-10-09T16:13:27;98595.06;;;18.80;59.68
56414;BME280;42318;48.452;19.526;2023-10-09T16:16:30;98589.41;;;18.81;59.55